Time;durP1;ratioP1;P1;durP2;ratioP2;P2;SDS_P1;SDS_P2;PMS_P1;PMS_P2;Temp;Humidity;BMP_temperature;BMP_pressure;BME280_temperature;BME280_humidity;BME280_pressure;Samples;Min_cycle;Max_cycle;Signal;HPM_P1;HPM_P2
2024/02/12 00:01:12;;;;;;;42.10;21.65;;;7.80;99.90;;;;;;5013292;28;20746;-90
2024/02/12 00:03:46;;;;;;;44.72;23.15;;;7.80;99.90;;;;;;5013727;28;20230;-91
2024/02/12 00:06:14;;;;;;;42.72;21.63;;;7.70;99.90;;;;;;5013089;28;20174;-92
2024/02/12 00:08:44;;;;;;;40.75;21.88;;;7.70;99.90;;;;;;5013318;28;20187;-92
2024/02/12 00:11:18;;;;;;;47.47;23.40;;;7.70;99.90;;;;;;5013236;28;20194;-91
2024/02/12 00:13:56;;;;;;;39.57;22.17;;;7.70;99.90;;;;;;5013098;28;20233;-90
2024/02/12 00:16:26;;;;;;;43.72;22.45;;;7.80;99.90;;;;;;5013305;28;20175;-90
2024/02/12 00:18:56;;;;;;;40.60;22.35;;;7.90;99.90;;;;;;5012975;28;20199;-90
2024/02/12 00:21:28;;;;;;;39.58;21.77;;;7.80;99.90;;;;;;5012982;28;20174;-90
2024/02/12 00:23:55;;;;;;;38.88;21.83;;;7.80;99.90;;;;;;5013025;28;20567;-90
2024/02/12 00:26:25;;;;;;;37.50;21.77;;;7.80;99.90;;;;;;5012898;28;20665;-90
2024/02/12 00:28:59;;;;;;;41.53;21.00;;;7.90;99.90;;;;;;5013194;28;20221;-91
2024/02/12 00:31:36;;;;;;;37.60;21.75;;;7.90;99.90;;;;;;5013110;28;20187;-90
2024/02/12 00:34:06;;;;;;;32.67;20.03;;;7.90;99.90;;;;;;5012843;28;20199;-92
2024/02/12 00:37:05;;;;;;;35.63;20.67;;;7.90;99.90;;;;;;5012733;28;20238;-89
2024/02/12 00:39:42;;;;;;;41.10;21.00;;;7.90;99.90;;;;;;5016893;28;20261;-89
2024/02/12 00:42:24;;;;;;;36.05;20.40;;;8.00;99.90;;;;;;5017037;28;20198;-91
2024/02/12 00:44:50;;;;;;;36.33;20.52;;;7.90;99.90;;;;;;5016826;28;20689;-90
2024/02/12 00:47:25;;;;;;;39.87;21.87;;;7.90;99.90;;;;;;5017085;28;20627;-90
2024/02/12 00:49:56;;;;;;;39.35;21.98;;;7.80;99.90;;;;;;5018089;28;20714;-90
2024/02/12 00:52:23;;;;;;;39.00;21.40;;;7.90;99.90;;;;;;5016769;28;20463;-90
2024/02/12 00:54:52;;;;;;;39.80;21.73;;;7.80;99.90;;;;;;5016554;28;20202;-91
2024/02/12 00:57:43;;;;;;;40.60;22.27;;;7.80;99.90;;;;;;5016459;28;20187;-90
2024/02/12 01:00:14;;;;;;;34.90;20.38;;;7.90;99.90;;;;;;5016373;28;20203;-91
2024/02/12 01:02:46;;;;;;;35.30;20.90;;;7.80;99.90;;;;;;5017693;28;20179;-89
2024/02/12 01:05:13;;;;;;;39.80;21.40;;;7.80;99.90;;;;;;5016531;28;20325;-91
2024/02/12 01:07:41;;;;;;;41.20;22.00;;;7.80;99.90;;;;;;5016520;28;20647;-90
2024/02/12 01:10:17;;;;;;;43.75;23.40;;;7.70;99.90;;;;;;5016465;28;20613;-90
2024/02/12 01:12:52;;;;;;;40.30;21.90;;;7.70;99.90;;;;;;5016534;28;20183;-89
2024/02/12 01:15:18;;;;;;;41.35;22.08;;;7.80;99.90;;;;;;5016322;28;20186;-90
2024/02/12 01:17:48;;;;;;;42.03;21.50;;;7.80;99.90;;;;;;5016368;28;20191;-90
2024/02/12 01:20:52;;;;;;;36.75;20.75;;;7.80;99.90;;;;;;5016209;28;20207;-90
2024/02/12 01:23:30;;;;;;;42.65;21.67;;;7.70;99.90;;;;;;4996604;28;20302;-89
2024/02/12 01:26:01;;;;;;;37.65;20.80;;;7.70;99.90;;;;;;5014125;28;20179;-91
2024/02/12 01:28:44;;;;;;;35.23;20.13;;;7.70;99.90;;;;;;5016167;28;20175;-90
2024/02/12 01:31:18;;;;;;;35.85;20.50;;;7.70;99.90;;;;;;5016209;28;20171;-92
2024/02/12 01:33:47;;;;;;;38.20;20.45;;;7.70;99.90;;;;;;5015728;28;20207;-92
2024/02/12 01:36:14;;;;;;;40.60;19.63;;;7.70;99.90;;;;;;5015653;28;20231;-90
2024/02/12 01:38:47;;;;;;;37.42;18.25;;;7.70;99.90;;;;;;5015772;28;20203;-90
2024/02/12 01:41:18;;;;;;;32.05;17.38;;;7.70;99.90;;;;;;5015804;28;20190;-90
2024/02/12 01:43:46;;;;;;;34.38;17.30;;;7.60;99.90;;;;;;5015847;28;20203;-90
2024/02/12 01:46:16;;;;;;;35.43;17.43;;;7.60;99.90;;;;;;5015784;28;20190;-91
2024/02/12 01:48:48;;;;;;;35.92;17.83;;;7.70;99.90;;;;;;5015505;28;20255;-90
2024/02/12 01:51:16;;;;;;;36.67;18.27;;;7.60;99.90;;;;;;5015644;28;20168;-89
2024/02/12 01:53:47;;;;;;;29.60;17.23;;;7.60;99.90;;;;;;5015224;28;20201;-90
2024/02/12 01:56:21;;;;;;;30.53;16.80;;;7.60;99.90;;;;;;5015409;28;20194;-90
2024/02/12 01:58:47;;;;;;;32.93;17.30;;;7.60;99.90;;;;;;5015327;28;20191;-91
2024/02/12 02:01:15;;;;;;;30.73;16.40;;;7.60;99.90;;;;;;5015926;28;20164;-89
2024/02/12 02:03:46;;;;;;;29.57;16.20;;;7.60;99.90;;;;;;5015041;28;20321;-90
2024/02/12 02:06:12;;;;;;;30.73;15.95;;;7.60;99.90;;;;;;5015696;28;20187;-91
2024/02/12 02:08:39;;;;;;;32.60;16.67;;;7.60;99.90;;;;;;5015520;28;20171;-89
2024/02/12 02:11:10;;;;;;;30.90;15.80;;;7.60;99.90;;;;;;5015062;28;20249;-91
2024/02/12 02:13:45;;;;;;;38.90;15.67;;;7.60;99.90;;;;;;5015223;28;20210;-89
2024/02/12 02:16:20;;;;;;;28.73;14.73;;;7.50;99.90;;;;;;5015237;28;20186;-92
2024/02/12 02:18:50;;;;;;;30.13;15.30;;;7.60;99.90;;;;;;5015066;28;20194;-89
2024/02/12 02:21:21;;;;;;;26.47;15.07;;;7.50;99.90;;;;;;5007545;28;20196;-90
2024/02/12 02:23:48;;;;;;;31.00;15.90;;;7.50;99.90;;;;;;5015069;28;20201;-91
2024/02/12 02:26:24;;;;;;;29.07;14.87;;;7.60;99.90;;;;;;5015548;28;20183;-92
2024/02/12 02:28:58;;;;;;;27.70;14.53;;;7.50;99.90;;;;;;5014991;28;20187;-89
2024/02/12 02:31:39;;;;;;;26.30;15.10;;;7.50;99.90;;;;;;5014958;28;20646;-92
2024/02/12 02:34:14;;;;;;;27.53;14.50;;;7.50;99.90;;;;;;5015196;28;20199;-90
2024/02/12 02:36:46;;;;;;;31.23;13.90;;;7.50;99.90;;;;;;5014614;28;20234;-90
2024/02/12 02:39:41;;;;;;;24.73;13.57;;;7.50;99.90;;;;;;5014832;28;20217;-91
2024/02/12 02:42:19;;;;;;;28.60;13.80;;;7.50;99.90;;;;;;5014804;28;20183;-91
2024/02/12 02:44:48;;;;;;;28.93;14.80;;;7.50;99.90;;;;;;5014687;28;20659;-90
2024/02/12 02:47:23;;;;;;;29.57;13.60;;;7.40;99.90;;;;;;5014882;28;20576;-89
2024/02/12 02:49:50;;;;;;;33.23;14.53;;;7.40;99.90;;;;;;5014585;28;20679;-90
2024/02/12 02:52:18;;;;;;;24.53;14.20;;;7.40;99.90;;;;;;5014893;28;20164;-92
2024/02/12 02:54:45;;;;;;;24.33;13.80;;;7.40;99.90;;;;;;5014556;28;20215;-90
2024/02/12 02:57:18;;;;;;;28.03;14.17;;;7.40;99.90;;;;;;5014164;28;20198;-92
2024/02/12 02:59:55;;;;;;;26.17;14.33;;;7.40;99.90;;;;;;5013695;28;20211;-92
2024/02/12 03:02:23;;;;;;;27.33;14.17;;;7.50;99.90;;;;;;5014712;28;20191;-90
2024/02/12 03:05:01;;;;;;;23.73;13.68;;;7.40;99.90;;;;;;5014709;28;20548;-90
2024/02/12 03:07:35;;;;;;;28.33;13.10;;;7.40;99.90;;;;;;5014414;28;20189;-90
2024/02/12 03:10:20;;;;;;;28.52;13.18;;;7.40;99.90;;;;;;5014305;28;20191;-90
2024/02/12 03:13:37;;;;;;;23.27;13.60;;;7.40;99.90;;;;;;5014064;28;20183;-90
2024/02/12 03:16:17;;;;;;;21.40;12.97;;;7.40;99.90;;;;;;5014122;28;20221;-91
2024/02/12 03:18:47;;;;;;;33.38;13.18;;;7.40;99.90;;;;;;5006988;28;20207;-91
2024/02/12 03:21:23;;;;;;;24.03;13.13;;;7.40;99.90;;;;;;5014104;28;20230;-90
2024/02/12 03:23:53;;;;;;;28.90;12.67;;;7.40;99.90;;;;;;5014109;28;20199;-91
2024/02/12 03:26:21;;;;;;;28.97;14.23;;;7.40;99.90;;;;;;5014073;28;20251;-91
2024/02/12 03:28:55;;;;;;;22.70;12.90;;;7.40;99.90;;;;;;5015096;28;20168;-91
2024/02/12 03:31:21;;;;;;;23.77;12.80;;;7.40;99.90;;;;;;5013888;28;20197;-89
2024/02/12 03:33:53;;;;;;;24.10;13.83;;;7.40;99.90;;;;;;5014107;28;20301;-89
2024/02/12 03:36:23;;;;;;;23.77;11.97;;;7.40;99.90;;;;;;5013662;28;20242;-90
2024/02/12 03:38:49;;;;;;;25.13;12.93;;;7.40;99.90;;;;;;5013865;28;20733;-91
2024/02/12 03:41:24;;;;;;;23.43;11.90;;;7.40;99.90;;;;;;5014134;28;20179;-91
2024/02/12 03:43:55;;;;;;;22.42;11.77;;;7.40;99.90;;;;;;5013625;28;20202;-91
2024/02/12 03:46:28;;;;;;;20.73;12.03;;;7.40;99.90;;;;;;5013824;28;20207;-91
2024/02/12 04:00:32;;;;;;;21.73;11.33;;;7.40;99.90;;;;;;5014937;28;20201;-91
2024/02/12 04:03:08;;;;;;;22.40;12.13;;;7.40;99.90;;;;;;5012160;28;20191;-90
2024/02/12 04:05:35;;;;;;;20.37;11.50;;;7.50;99.90;;;;;;5007818;28;20221;-91
2024/02/12 04:08:08;;;;;;;22.70;11.53;;;7.50;99.90;;;;;;5013362;28;20179;-90
2024/02/12 04:10:48;;;;;;;18.20;11.43;;;7.50;99.90;;;;;;5013253;28;20183;-91
2024/02/12 04:13:22;;;;;;;18.48;11.00;;;7.50;99.90;;;;;;5012373;28;20214;-91
2024/02/12 04:15:49;;;;;;;21.40;11.47;;;7.50;99.90;;;;;;5013408;28;20187;-90
2024/02/12 04:18:16;;;;;;;17.13;10.97;;;7.40;99.90;;;;;;5012460;28;20551;-91
2024/02/12 04:20:51;;;;;;;17.53;10.67;;;7.50;99.90;;;;;;5013346;28;20627;-93
2024/02/12 04:23:19;;;;;;;23.50;11.17;;;7.40;99.90;;;;;;5013300;28;20221;-90
2024/02/12 04:25:45;;;;;;;17.60;10.30;;;7.50;99.90;;;;;;5013162;28;20190;-90
2024/02/12 04:28:13;;;;;;;17.33;10.57;;;7.50;99.90;;;;;;5013273;28;20298;-93
2024/02/12 04:31:04;;;;;;;15.20;9.88;;;7.40;99.90;;;;;;5013377;28;20190;-91
2024/02/12 04:33:32;;;;;;;19.65;11.30;;;7.40;99.90;;;;;;5013043;28;20202;-90
2024/02/12 04:36:01;;;;;;;17.63;10.50;;;7.40;99.90;;;;;;5012778;28;20183;-91
2024/02/12 04:38:28;;;;;;;16.97;10.27;;;7.50;99.90;;;;;;4991528;28;20291;-90
2024/02/12 04:40:54;;;;;;;17.40;10.18;;;7.50;99.90;;;;;;4969375;28;20279;-93
2024/02/12 04:43:30;;;;;;;19.17;10.63;;;7.50;99.90;;;;;;4994697;28;20219;-90
2024/02/12 04:46:13;;;;;;;16.60;10.43;;;7.40;99.90;;;;;;4976307;28;20194;-90
2024/02/12 04:48:40;;;;;;;18.40;11.13;;;7.50;99.90;;;;;;4957892;28;20180;-90
2024/02/12 04:51:10;;;;;;;18.10;10.37;;;7.50;99.90;;;;;;4965919;28;20195;-92
2024/02/12 04:53:44;;;;;;;16.00;10.40;;;7.50;99.90;;;;;;4957877;28;20204;-91
2024/02/12 04:56:10;;;;;;;18.37;9.87;;;7.50;99.90;;;;;;4968724;28;20198;-90
2024/02/12 04:58:37;;;;;;;17.67;10.53;;;7.40;99.90;;;;;;4977043;28;20208;-90
2024/02/12 05:01:18;;;;;;;17.90;10.97;;;7.50;99.90;;;;;;4977175;28;20192;-91
2024/02/12 05:03:50;;;;;;;16.53;10.70;;;7.40;99.90;;;;;;4961586;28;20215;-91
2024/02/12 05:06:36;;;;;;;18.67;10.80;;;7.40;99.90;;;;;;4957875;28;20648;-91
2024/02/12 05:09:10;;;;;;;22.90;10.63;;;7.40;99.90;;;;;;4957279;28;20192;-90
2024/02/12 05:11:48;;;;;;;19.87;11.27;;;7.40;99.90;;;;;;4971385;28;20191;-90
2024/02/12 05:14:14;;;;;;;17.10;11.53;;;7.40;99.90;;;;;;4976258;28;20212;-91
2024/02/12 05:16:45;;;;;;;20.87;11.77;;;7.40;99.90;;;;;;4968289;28;20195;-90
2024/02/12 05:25:05;;;;;;;21.70;12.77;;;7.50;99.90;;;;;;4980981;28;20215;-89
2024/02/12 05:27:36;;;;;;;22.97;12.00;;;7.50;99.90;;;;;;4960885;28;20177;-91
2024/02/12 05:30:03;;;;;;;21.30;12.20;;;7.50;99.90;;;;;;4970230;28;20648;-91
2024/02/12 05:32:29;;;;;;;22.40;12.47;;;7.50;99.90;;;;;;4997020;28;20196;-91
2024/02/12 05:34:56;;;;;;;23.53;12.07;;;7.40;99.90;;;;;;4980112;28;20216;-90
2024/02/12 05:37:22;;;;;;;23.60;12.60;;;7.40;99.90;;;;;;5002170;28;20227;-90
2024/02/12 05:39:54;;;;;;;22.90;12.37;;;7.40;99.90;;;;;;5014556;28;20910;-91
2024/02/12 05:42:22;;;;;;;23.53;12.47;;;7.40;99.90;;;;;;4994964;28;20211;-91
2024/02/12 05:45:08;;;;;;;19.42;11.52;;;7.40;99.90;;;;;;4995135;28;20203;-89
2024/02/12 05:48:26;;;;;;;21.27;11.70;;;7.40;99.90;;;;;;4995200;28;20640;-91
2024/02/12 05:50:59;;;;;;;25.87;12.90;;;7.40;99.90;;;;;;5011429;28;20176;-91
2024/02/12 05:53:33;;;;;;;24.73;12.77;;;7.50;99.90;;;;;;4996460;28;20255;-90
2024/02/12 05:55:59;;;;;;;26.53;13.57;;;7.50;99.90;;;;;;4995555;28;20171;-90
2024/02/12 05:58:43;;;;;;;20.07;13.07;;;7.40;99.90;;;;;;4996312;28;20183;-91
2024/02/12 06:01:11;;;;;;;25.70;13.53;;;7.40;99.90;;;;;;5013588;28;20190;-90
2024/02/12 06:03:49;;;;;;;24.70;13.80;;;7.40;99.90;;;;;;5014789;28;20191;-93
2024/02/12 06:06:18;;;;;;;24.13;14.03;;;7.50;99.90;;;;;;5000254;28;20186;-92
2024/02/12 06:08:45;;;;;;;20.87;13.30;;;7.50;99.90;;;;;;5014672;28;20626;-90
2024/02/12 06:11:11;;;;;;;25.47;14.20;;;7.50;99.90;;;;;;5014697;28;20178;-90
2024/02/12 06:13:46;;;;;;;24.50;13.90;;;7.40;99.90;;;;;;5014836;28;20218;-89
2024/02/12 06:16:17;;;;;;;26.53;14.27;;;7.40;99.90;;;;;;5014523;28;20232;-91
2024/02/12 06:18:44;;;;;;;25.67;14.70;;;7.40;99.90;;;;;;5014435;28;20236;-90
2024/02/12 06:21:32;;;;;;;27.27;14.17;;;7.40;99.90;;;;;;5013871;28;20182;-90
2024/02/12 06:24:02;;;;;;;28.83;14.77;;;7.40;99.90;;;;;;5013464;28;20261;-91
2024/02/12 06:26:47;;;;;;;28.17;14.93;;;7.40;99.90;;;;;;5013749;28;20222;-90
2024/02/12 06:29:14;;;;;;;33.43;15.97;;;7.40;99.90;;;;;;5013892;28;20638;-90
2024/02/12 06:31:42;;;;;;;30.97;15.40;;;7.40;99.90;;;;;;5014314;28;20187;-91
2024/02/12 06:34:36;;;;;;;31.97;15.83;;;7.40;99.90;;;;;;5013525;28;20226;-90
2024/02/12 06:37:03;;;;;;;30.47;16.47;;;7.50;99.90;;;;;;4969906;28;1290130;-91
2024/02/12 06:39:39;;;;;;;32.93;17.10;;;7.50;99.90;;;;;;5014746;28;20214;-90
2024/02/12 06:42:07;;;;;;;29.33;16.30;;;7.40;99.90;;;;;;5014801;28;20183;-91
2024/02/12 06:44:46;;;;;;;32.90;17.13;;;7.40;99.90;;;;;;5015203;28;20248;-93
2024/02/12 06:47:14;;;;;;;38.97;18.00;;;7.40;99.90;;;;;;5014837;28;20190;-91
2024/02/12 06:49:45;;;;;;;30.87;16.53;;;7.40;99.90;;;;;;5014802;28;20171;-92
2024/02/12 06:52:17;;;;;;;35.13;17.30;;;7.40;99.90;;;;;;5015978;28;20175;-95
2024/02/12 06:55:04;;;;;;;35.03;17.03;;;7.50;99.90;;;;;;5016232;28;20199;-94
2024/02/12 06:57:57;;;;;;;30.83;16.23;;;7.50;99.90;;;;;;5017489;28;20187;-95
2024/02/12 07:01:12;;;;;;;32.60;16.83;;;7.50;99.90;;;;;;5015731;28;20286;-91
2024/02/12 07:03:53;;;;;;;34.10;17.03;;;7.40;99.90;;;;;;5014706;28;20199;-90
2024/02/12 07:06:22;;;;;;;33.43;16.93;;;7.40;99.90;;;;;;5015095;28;20159;-92
2024/02/12 07:08:48;;;;;;;31.17;17.07;;;7.40;99.90;;;;;;5014605;28;20642;-91
2024/02/12 07:11:30;;;;;;;31.53;16.57;;;7.50;99.90;;;;;;5014541;28;20174;-91
2024/02/12 07:14:03;;;;;;;30.90;17.17;;;7.50;99.90;;;;;;5014535;28;20206;-91
2024/02/12 07:16:40;;;;;;;29.75;17.42;;;7.50;99.90;;;;;;5014438;28;20175;-91
2024/02/12 07:19:17;;;;;;;33.13;17.50;;;7.60;99.90;;;;;;5014151;28;20191;-90
2024/02/12 07:21:43;;;;;;;32.53;17.17;;;7.60;99.90;;;;;;5014137;28;20175;-91
2024/02/12 07:24:12;;;;;;;34.83;17.40;;;7.50;99.90;;;;;;5014260;28;20192;-91
2024/02/12 07:26:39;;;;;;;35.87;17.97;;;7.50;99.90;;;;;;5014435;28;20167;-90
2024/02/12 07:29:12;;;;;;;43.20;18.40;;;7.50;99.90;;;;;;5014213;28;20172;-91
2024/02/12 07:31:56;;;;;;;34.63;17.00;;;7.50;99.90;;;;;;5014381;28;20317;-91
2024/02/12 07:34:35;;;;;;;34.80;18.50;;;7.50;99.90;;;;;;5006728;28;20207;-90
2024/02/12 07:37:08;;;;;;;41.80;19.03;;;7.50;99.90;;;;;;5013189;28;20234;-91
2024/02/12 07:39:48;;;;;;;35.17;18.03;;;7.50;99.90;;;;;;5013829;28;20290;-91
2024/02/12 07:42:17;;;;;;;34.60;18.07;;;7.50;99.90;;;;;;5008281;28;20228;-93
2024/02/12 07:44:44;;;;;;;32.37;17.77;;;7.60;99.90;;;;;;5009239;28;20207;-91
2024/02/12 07:47:25;;;;;;;30.53;17.30;;;7.60;99.90;;;;;;5014689;28;20266;-93
2024/02/12 07:49:52;;;;;;;39.23;18.47;;;7.60;99.90;;;;;;5013171;28;20206;-94
2024/02/12 07:52:28;;;;;;;30.77;17.70;;;7.60;99.90;;;;;;5013484;28;20183;-95
2024/02/12 07:55:05;;;;;;;30.90;17.47;;;7.70;99.90;;;;;;5015309;28;20207;-96
2024/02/12 07:58:14;;;;;;;38.13;19.60;;;7.60;99.90;;;;;;5014099;28;20213;-94
2024/02/12 08:00:50;;;;;;;35.90;18.20;;;7.60;99.90;;;;;;5013365;28;20202;-96
2024/02/12 08:03:38;;;;;;;38.70;19.43;;;7.60;99.90;;;;;;5013444;28;20646;-95
2024/02/12 08:06:15;;;;;;;36.90;19.23;;;7.70;99.90;;;;;;5013012;28;20179;-95
2024/02/12 08:08:47;;;;;;;36.30;19.93;;;7.70;99.90;;;;;;5012722;28;20642;-95
2024/02/12 08:11:15;;;;;;;35.93;18.30;;;7.70;99.90;;;;;;5013195;28;20716;-95
2024/02/12 08:13:52;;;;;;;42.45;18.50;;;7.70;99.90;;;;;;5012440;28;20215;-95
2024/02/12 08:16:25;;;;;;;39.47;19.70;;;7.70;99.90;;;;;;5013133;28;20244;-94
2024/02/12 08:18:57;;;;;;;35.53;19.20;;;7.90;99.90;;;;;;5012953;28;20238;-96
2024/02/12 08:21:41;;;;;;;33.37;19.33;;;7.90;99.90;;;;;;5013146;28;20171;-95
2024/02/12 08:24:39;;;;;;;29.97;18.73;;;7.90;99.90;;;;;;5013459;28;20187;-95
2024/02/12 08:27:17;;;;;;;32.07;17.40;;;7.90;99.90;;;;;;5012714;28;20198;-95
2024/02/12 08:29:51;;;;;;;33.92;19.35;;;7.90;99.90;;;;;;5012908;28;20313;-95
2024/02/12 08:32:33;;;;;;;34.23;19.43;;;7.90;99.90;;;;;;5013351;28;20635;-95
2024/02/12 08:35:17;;;;;;;31.00;17.83;;;8.00;99.90;;;;;;5012994;28;20198;-95
2024/02/12 08:37:55;;;;;;;34.40;18.83;;;8.00;99.90;;;;;;5012564;28;20310;-95
2024/02/12 08:40:26;;;;;;;34.25;18.80;;;8.00;99.90;;;;;;5012276;28;20211;-94
2024/02/12 08:43:15;;;;;;;34.97;19.13;;;8.00;99.90;;;;;;5012990;28;20711;-95
2024/02/12 08:46:01;;;;;;;32.28;18.48;;;8.00;99.90;;;;;;5012204;28;20213;-95
2024/02/12 08:48:51;;;;;;;29.45;18.08;;;8.00;99.90;;;;;;5003744;28;20970;-94
2024/02/12 08:51:36;;;;;;;32.10;18.67;;;8.00;99.90;;;;;;5013190;28;20207;-95
2024/02/12 08:54:30;;;;;;;31.47;18.17;;;8.00;99.90;;;;;;5012507;28;20663;-95
2024/02/12 08:57:15;;;;;;;38.20;18.17;;;8.00;99.90;;;;;;5013027;28;20176;-94
2024/02/12 08:59:49;;;;;;;31.10;17.23;;;8.00;99.90;;;;;;5015400;28;20233;-95
2024/02/12 09:02:15;;;;;;;28.90;16.57;;;8.10;99.90;;;;;;5016143;28;20622;-95
2024/02/12 09:04:47;;;;;;;31.10;17.73;;;8.00;99.90;;;;;;5016469;28;20199;-95
2024/02/12 09:07:30;;;;;;;30.43;17.10;;;8.10;99.90;;;;;;5016691;28;20179;-95
2024/02/12 09:10:16;;;;;;;27.50;17.63;;;8.20;99.90;;;;;;5016628;28;20179;-95
2024/02/12 09:12:47;;;;;;;31.10;17.70;;;8.40;99.90;;;;;;5016767;28;20194;-93
2024/02/12 09:15:16;;;;;;;32.10;16.47;;;8.60;99.90;;;;;;5016383;28;20206;-95
2024/02/12 09:17:58;;;;;;;27.63;16.42;;;8.70;99.90;;;;;;5016420;28;20178;-95
2024/02/12 09:20:28;;;;;;;27.70;16.30;;;8.90;99.90;;;;;;5016318;28;20214;-94
2024/02/12 09:23:26;;;;;;;23.52;15.35;;;8.90;99.90;;;;;;5015946;28;20176;-94
2024/02/12 09:26:30;;;;;;;29.42;16.25;;;8.80;99.90;;;;;;5016231;28;20175;-95
2024/02/12 09:29:13;;;;;;;27.08;15.88;;;8.80;99.90;;;;;;5016336;28;20171;-95
2024/02/12 09:31:42;;;;;;;24.27;15.40;;;8.80;99.90;;;;;;5016676;28;20175;-96
2024/02/12 09:34:09;;;;;;;26.85;15.15;;;8.60;99.90;;;;;;5016357;28;20290;-96
2024/02/12 09:36:43;;;;;;;26.92;15.35;;;8.50;99.90;;;;;;5011352;28;20558;-94
2024/02/12 09:39:15;;;;;;;21.65;14.10;;;8.60;99.90;;;;;;4980574;28;20210;-95
2024/02/12 09:42:01;;;;;;;24.92;14.20;;;8.60;99.90;;;;;;4981623;28;20276;-95
2024/02/12 09:44:45;;;;;;;25.55;14.45;;;8.70;99.90;;;;;;4980284;28;20207;-95
2024/02/12 09:50:32;;;;;;;19.15;13.52;;;8.80;99.90;;;;;;4956912;28;20691;-96
2024/02/12 09:54:08;;;;;;;;;;;;;;;;;;;;;
2024/02/12 09:57:01;;;;;;;24.77;14.98;;;8.60;99.90;;;;;;4997101;28;20192;-96
2024/02/12 09:59:35;;;;;;;23.45;14.52;;;8.60;99.90;;;;;;4979845;28;20258;-94
2024/02/12 10:02:10;;;;;;;20.83;13.82;;;8.60;99.90;;;;;;4979852;28;20716;-96
2024/02/12 10:04:38;;;;;;;22.05;14.38;;;8.60;99.90;;;;;;4979927;28;20811;-95
2024/02/12 10:07:10;;;;;;;26.90;15.33;;;8.50;99.90;;;;;;4980118;28;20184;-95
2024/02/12 10:09:46;;;;;;;22.90;14.07;;;8.50;99.90;;;;;;4979350;28;20180;-95
2024/02/12 10:12:12;;;;;;;23.90;13.88;;;8.60;99.90;;;;;;4979974;28;20179;-95
2024/02/12 10:14:56;;;;;;;26.65;16.05;;;8.60;99.90;;;;;;4979648;28;20214;-95
2024/02/12 10:17:59;;;;;;;;;;;;;;;;;;;;;
2024/02/12 10:23:45;;;;;;;22.83;14.55;;;8.60;99.90;;;;;;4966406;28;20277;-96
2024/02/12 10:26:12;;;;;;;22.98;14.52;;;8.70;99.90;;;;;;4979810;28;20655;-96
2024/02/12 10:29:13;;;;;;;;;;;;;;;;;;;;;
2024/02/12 10:31:44;;;;;;;25.77;14.32;;;8.70;99.90;;;;;;4940252;29;20247;-94
2024/02/12 10:34:31;;;;;;;23.88;13.48;;;8.80;99.90;;;;;;4938901;29;20273;-95
2024/02/12 10:37:36;;;;;;;26.33;13.63;;;8.80;99.90;;;;;;4939050;29;20238;-95
2024/02/12 10:40:30;;;;;;;22.37;14.17;;;8.60;99.90;;;;;;4977637;28;20216;-96
2024/02/12 10:43:46;;;;;;;20.38;13.55;;;8.50;99.90;;;;;;4975587;28;20589;-94
2024/02/12 10:46:12;;;;;;;23.57;13.87;;;8.60;99.90;;;;;;4958045;28;20247;-96
2024/02/12 10:49:06;;;;;;;19.27;12.88;;;8.50;99.90;;;;;;4976344;28;20185;-95
2024/02/12 10:51:59;;;;;;;21.17;13.90;;;8.60;99.90;;;;;;4975646;28;20168;-94
2024/02/12 10:54:36;;;;;;;23.70;13.40;;;8.70;99.90;;;;;;4975260;28;20208;-95
2024/02/12 11:03:11;;;;;;;21.88;14.13;;;8.90;99.90;;;;;;5025901;23;20246;-89
2024/02/12 11:05:43;;;;;;;23.50;13.05;;;9.10;99.90;;;;;;5017259;28;20195;-89
2024/02/12 11:08:14;;;;;;;21.63;13.55;;;9.00;99.90;;;;;;5014119;28;20222;-88
2024/02/12 11:10:43;;;;;;;19.80;12.85;;;9.10;99.90;;;;;;5018512;28;20190;-89
2024/02/12 11:13:15;;;;;;;21.70;12.73;;;9.20;99.90;;;;;;5027539;28;20286;-91
2024/02/12 11:15:50;;;;;;;20.60;12.77;;;9.30;99.90;;;;;;5027056;28;20201;-89
2024/02/12 11:18:16;;;;;;;21.95;13.93;;;9.30;99.90;;;;;;5024166;28;20189;-89
2024/02/12 11:20:49;;;;;;;23.20;12.98;;;9.40;99.90;;;;;;5019671;28;20207;-88
2024/02/12 11:23:23;;;;;;;19.23;12.10;;;9.60;99.90;;;;;;5017818;28;20210;-88
2024/02/12 11:25:50;;;;;;;18.02;11.70;;;9.60;99.90;;;;;;5019718;28;20265;-86
2024/02/12 11:28:16;;;;;;;15.77;11.02;;;9.50;99.90;;;;;;5026749;28;20185;-86
2024/02/12 11:30:48;;;;;;;19.98;12.25;;;9.50;99.90;;;;;;5019336;28;20189;-87
2024/02/12 11:33:15;;;;;;;16.38;11.23;;;9.50;99.90;;;;;;5040906;28;20523;-87
2024/02/12 11:35:40;;;;;;;18.08;12.05;;;9.50;99.90;;;;;;5023064;28;20182;-86
2024/02/12 11:38:09;;;;;;;19.27;12.25;;;9.50;99.90;;;;;;5039912;28;20182;-86
2024/02/12 11:40:35;;;;;;;17.33;11.30;;;9.50;99.90;;;;;;5021709;28;20299;-87
2024/02/12 11:43:01;;;;;;;18.27;11.95;;;9.60;99.90;;;;;;5032575;28;20252;-86
2024/02/12 11:45:27;;;;;;;23.27;11.85;;;9.70;99.90;;;;;;5039266;28;20209;-87
2024/02/12 11:48:03;;;;;;;18.25;11.82;;;9.70;99.90;;;;;;5010574;28;20198;-88
2024/02/12 11:50:29;;;;;;;16.88;10.38;;;9.60;99.90;;;;;;5013460;28;20178;-88
2024/02/12 11:53:01;;;;;;;17.25;11.05;;;9.60;99.90;;;;;;5017085;28;20521;-86
2024/02/12 11:55:27;;;;;;;17.02;10.80;;;9.60;99.90;;;;;;5013180;28;20274;-88
2024/02/12 11:57:53;;;;;;;14.80;9.90;;;9.50;99.90;;;;;;5021824;28;20178;-87
2024/02/12 12:00:21;;;;;;;16.05;11.02;;;9.40;99.90;;;;;;5037894;28;20209;-88
2024/02/12 12:02:50;;;;;;;15.05;10.93;;;9.30;99.90;;;;;;5027756;28;20178;-86
2024/02/12 12:05:26;;;;;;;13.70;9.45;;;9.40;99.90;;;;;;5008379;28;20203;-86
2024/02/12 12:07:53;;;;;;;18.67;9.63;;;9.40;99.90;;;;;;5029259;28;21350;-86
2024/02/12 12:10:27;;;;;;;13.50;9.38;;;9.40;99.90;;;;;;5032552;28;20201;-85
2024/02/12 12:12:56;;;;;;;16.27;9.57;;;9.40;99.90;;;;;;5012886;28;20205;-87
2024/02/12 12:15:22;;;;;;;13.18;9.43;;;9.40;99.90;;;;;;5016089;28;20707;-88
2024/02/12 12:17:48;;;;;;;12.63;8.45;;;9.40;99.90;;;;;;5012151;28;20772;-86
2024/02/12 12:20:17;;;;;;;13.45;9.10;;;9.30;99.90;;;;;;5023125;28;20776;-85
2024/02/12 12:22:44;;;;;;;13.05;9.30;;;9.40;99.90;;;;;;5009189;28;20629;-88
2024/02/12 12:25:21;;;;;;;12.43;7.95;;;9.40;99.90;;;;;;5008406;28;20194;-87
2024/02/12 12:27:50;;;;;;;12.03;8.47;;;9.30;99.90;;;;;;5014942;28;20209;-86
2024/02/12 12:30:19;;;;;;;16.35;8.90;;;9.40;99.90;;;;;;5012781;28;20233;-87
2024/02/12 12:32:50;;;;;;;16.88;9.20;;;9.40;99.90;;;;;;5029033;28;20187;-86
2024/02/12 12:35:19;;;;;;;12.02;8.93;;;9.50;99.90;;;;;;5012937;28;20186;-87
2024/02/12 12:37:45;;;;;;;12.05;8.50;;;9.50;99.90;;;;;;5020188;28;20204;-88
2024/02/12 12:40:18;;;;;;;18.60;9.60;;;9.90;99.90;;;;;;5038378;28;20206;-87
2024/02/12 12:42:48;;;;;;;11.10;7.93;;;9.90;99.90;;;;;;5021466;28;20186;-87
2024/02/12 12:45:15;;;;;;;10.65;8.15;;;9.90;99.90;;;;;;5020865;28;20628;-87
2024/02/12 12:47:42;;;;;;;13.20;8.50;;;10.00;99.90;;;;;;5012268;28;20193;-87
2024/02/12 12:50:09;;;;;;;13.55;8.77;;;9.90;99.90;;;;;;5009593;28;20236;-87
2024/02/12 12:52:38;;;;;;;14.32;8.73;;;9.90;99.90;;;;;;5033402;28;20274;-86
2024/02/12 12:55:08;;;;;;;13.77;9.00;;;9.90;99.90;;;;;;5028221;28;20187;-87
2024/02/12 12:57:35;;;;;;;13.23;8.55;;;10.00;99.90;;;;;;5012108;28;20210;-87
2024/02/12 13:00:05;;;;;;;14.10;9.27;;;10.00;99.90;;;;;;5027796;28;20210;-87
2024/02/12 13:02:34;;;;;;;13.35;9.52;;;10.00;99.90;;;;;;5008816;28;20236;-87
2024/02/12 13:05:04;;;;;;;14.00;9.63;;;10.00;99.90;;;;;;5053638;28;20714;-88
2024/02/12 13:07:33;;;;;;;13.50;9.27;;;10.10;99.90;;;;;;5038550;28;20670;-87
2024/02/12 13:09:59;;;;;;;16.42;9.20;;;10.00;99.90;;;;;;5032317;28;20698;-88
2024/02/12 13:12:25;;;;;;;17.00;10.20;;;10.00;99.90;;;;;;5027048;28;20186;-87
2024/02/12 13:14:52;;;;;;;16.05;10.02;;;9.80;99.90;;;;;;5028738;28;20192;-86
2024/02/12 13:17:18;;;;;;;18.25;9.60;;;9.80;99.90;;;;;;5020111;28;20668;-87
2024/02/12 13:19:43;;;;;;;14.13;9.77;;;9.80;99.90;;;;;;5037869;28;20214;-86
2024/02/12 13:22:10;;;;;;;12.60;9.57;;;9.70;99.90;;;;;;5031585;28;20273;-86
2024/02/12 13:24:40;;;;;;;14.73;10.75;;;9.60;99.90;;;;;;5020489;28;20186;-86
2024/02/12 13:27:06;;;;;;;19.60;11.38;;;9.60;99.90;;;;;;5021937;28;20174;-85
2024/02/12 13:29:33;;;;;;;14.77;9.98;;;9.50;99.90;;;;;;5039645;28;20562;-85
2024/02/12 13:32:01;;;;;;;14.55;10.38;;;9.50;99.90;;;;;;5021742;28;20609;-86
2024/02/12 13:34:28;;;;;;;16.27;11.25;;;9.40;99.90;;;;;;5020342;28;20568;-87
2024/02/12 13:36:55;;;;;;;23.88;12.23;;;9.50;99.90;;;;;;5017481;28;20187;-87
2024/02/12 13:39:20;;;;;;;15.98;10.75;;;9.40;99.90;;;;;;5031778;28;20233;-87
2024/02/12 13:41:47;;;;;;;17.45;11.63;;;9.40;99.90;;;;;;5032880;28;20214;-88
2024/02/12 13:44:13;;;;;;;18.25;12.38;;;9.40;99.90;;;;;;5042209;28;20183;-86
2024/02/12 13:46:40;;;;;;;17.65;11.75;;;9.40;99.90;;;;;;5012719;28;20216;-87